createdAt,value
2022-07-29T00:00:21.990Z,91.80
2022-07-29T00:03:10.614Z,92.20
2022-07-29T00:05:58.862Z,92.50
2022-07-29T00:08:49.124Z,92.50
2022-07-29T00:11:37.409Z,92.70
2022-07-29T00:14:27.258Z,92.40
2022-07-29T00:17:15.489Z,92.50
2022-07-29T00:20:08.722Z,93.10
2022-07-29T00:22:56.906Z,93.00
2022-07-29T00:25:45.051Z,94.00
2022-07-29T00:28:33.296Z,93.80
2022-07-29T00:31:22.865Z,94.40
2022-07-29T00:34:31.098Z,94.50
2022-07-29T00:37:18.320Z,94.80
2022-07-29T00:40:07.705Z,95.00
2022-07-29T00:42:56.087Z,95.00
2022-07-29T00:45:44.568Z,95.30
2022-07-29T00:48:34.257Z,95.60
2022-07-29T00:51:22.490Z,95.70
2022-07-29T00:54:10.822Z,95.90
2022-07-29T00:57:00.506Z,96.00
2022-07-29T00:59:48.679Z,96.40
2022-07-29T01:02:37.131Z,96.90
2022-07-29T01:05:50.160Z,97.10
2022-07-29T01:08:38.854Z,96.90
2022-07-29T01:11:27.510Z,97.50
2022-07-29T01:14:17.074Z,97.90
2022-07-29T01:17:12.593Z,97.70
2022-07-29T01:20:06.996Z,97.80
2022-07-29T01:23:18.581Z,98.20
2022-07-29T01:26:28.376Z,98.40
2022-07-29T01:29:20.865Z,98.50
2022-07-29T01:32:27.584Z,98.60
2022-07-29T01:35:22.487Z,98.40
2022-07-29T01:38:14.579Z,99.00
2022-07-29T01:41:08.845Z,99.00
2022-07-29T01:43:59.954Z,99.20
2022-07-29T01:46:54.834Z,99.20
2022-07-29T01:49:51.039Z,99.30
2022-07-29T01:52:44.557Z,99.70
2022-07-29T01:55:36.968Z,99.50
2022-07-29T01:58:26.631Z,99.50
2022-07-29T02:01:15.575Z,99.60
2022-07-29T02:04:08.203Z,99.40
2022-07-29T02:07:00.725Z,99.90
2022-07-29T02:09:51.220Z,99.90
2022-07-29T02:12:40.927Z,99.90
2022-07-29T02:15:32.503Z,99.90
2022-07-29T02:18:25.044Z,99.90
2022-07-29T02:21:19.152Z,99.90
2022-07-29T02:24:08.172Z,99.90
2022-07-29T02:26:59.745Z,99.90
2022-07-29T02:29:50.092Z,99.90
2022-07-29T02:32:41.822Z,99.90
2022-07-29T02:35:34.641Z,99.90
2022-07-29T02:38:43.632Z,99.90
2022-07-29T02:41:37.311Z,99.90
2022-07-29T02:44:32.654Z,99.90
2022-07-29T02:47:26.152Z,99.90
2022-07-29T02:50:18.910Z,99.90
2022-07-29T02:53:11.364Z,99.90
2022-07-29T02:56:03.753Z,99.90
2022-07-29T02:58:56.624Z,99.90
2022-07-29T03:01:45.769Z,99.90
2022-07-29T03:04:36.142Z,99.90
2022-07-29T03:07:25.432Z,99.90
2022-07-29T03:10:14.558Z,99.90
2022-07-29T03:13:04.386Z,99.90
2022-07-29T03:15:52.974Z,99.90
2022-07-29T03:18:41.564Z,99.90
2022-07-29T03:21:29.809Z,99.90
2022-07-29T03:24:32.425Z,99.90
2022-07-29T03:27:20.795Z,99.90
2022-07-29T03:30:12.006Z,99.90
2022-07-29T03:33:13.554Z,99.90
2022-07-29T03:36:03.355Z,99.90
2022-07-29T03:38:52.055Z,99.90
2022-07-29T03:41:42.651Z,99.90
2022-07-29T03:44:32.735Z,99.90
2022-07-29T03:47:43.555Z,99.90
2022-07-29T03:50:37.114Z,99.90
2022-07-29T03:53:25.477Z,99.90
2022-07-29T03:56:18.920Z,99.90
2022-07-29T03:59:08.305Z,99.90
2022-07-29T04:01:59.068Z,99.90
2022-07-29T04:04:49.026Z,99.90
2022-07-29T04:07:37.234Z,99.90
2022-07-29T04:10:30.143Z,99.90
2022-07-29T04:13:20.432Z,99.90
2022-07-29T04:16:08.669Z,99.90
2022-07-29T04:18:56.988Z,99.90
2022-07-29T04:21:47.129Z,99.90
2022-07-29T04:24:35.291Z,99.90
2022-07-29T04:27:23.505Z,99.90
2022-07-29T04:30:11.896Z,99.90
2022-07-29T04:33:01.758Z,99.90
2022-07-29T04:35:52.456Z,99.90
2022-07-29T04:38:44.621Z,99.90
2022-07-29T04:41:33.837Z,99.90
2022-07-29T04:44:22.975Z,99.90
2022-07-29T04:47:17.127Z,99.90
2022-07-29T04:50:06.272Z,99.90
2022-07-29T04:52:54.448Z,99.90
2022-07-29T04:55:44.004Z,99.90
2022-07-29T04:58:32.172Z,99.90
2022-07-29T05:01:20.797Z,99.90
2022-07-29T05:04:09.088Z,99.90
2022-07-29T05:06:57.268Z,99.90
2022-07-29T05:09:45.477Z,99.90
2022-07-29T05:12:34.968Z,99.90
2022-07-29T05:15:23.198Z,99.90
2022-07-29T05:18:11.410Z,99.90
2022-07-29T05:20:59.683Z,99.90
2022-07-29T05:23:47.870Z,99.90
2022-07-29T05:26:36.141Z,99.90
2022-07-29T05:29:44.344Z,99.90
2022-07-29T05:32:33.773Z,99.90
2022-07-29T05:35:22.113Z,99.90
2022-07-29T05:38:10.317Z,99.90
2022-07-29T05:40:59.629Z,99.90
2022-07-29T05:43:47.852Z,99.90
2022-07-29T05:46:37.434Z,99.90
2022-07-29T05:49:27.453Z,99.90
2022-07-29T05:52:15.985Z,99.90
2022-07-29T05:55:06.542Z,99.90
2022-07-29T05:57:54.787Z,99.90
2022-07-29T06:00:43.078Z,99.90
2022-07-29T06:03:32.593Z,99.90
2022-07-29T06:06:20.792Z,99.90
2022-07-29T06:09:12.212Z,99.90
2022-07-29T06:12:01.001Z,99.90
2022-07-29T06:14:53.950Z,99.90
2022-07-29T06:18:00.825Z,99.90
2022-07-29T06:20:50.993Z,99.90
2022-07-29T06:23:39.589Z,99.90
2022-07-29T06:26:31.312Z,99.90
2022-07-29T06:29:20.825Z,99.90
2022-07-29T06:32:10.132Z,99.90
2022-07-29T06:35:24.530Z,99.90
2022-07-29T06:38:13.784Z,99.90
2022-07-29T06:41:17.028Z,99.90
2022-07-29T06:44:06.347Z,99.90
2022-07-29T06:46:55.759Z,99.90
2022-07-29T06:49:43.954Z,99.90
2022-07-29T06:52:32.200Z,99.90
2022-07-29T06:55:25.060Z,99.90
2022-07-29T06:58:15.165Z,99.90
2022-07-29T07:01:05.536Z,99.90
2022-07-29T07:03:53.780Z,99.90
2022-07-29T07:06:42.043Z,99.90
2022-07-29T07:09:40.040Z,99.90
2022-07-29T07:12:30.460Z,99.90
2022-07-29T07:15:22.700Z,99.90
2022-07-29T07:18:27.070Z,99.90
2022-07-29T07:21:19.238Z,99.90
2022-07-29T07:24:08.847Z,99.90
2022-07-29T07:26:57.042Z,99.90
2022-07-29T07:29:46.567Z,99.90
2022-07-29T07:32:35.259Z,99.90
2022-07-29T07:35:23.828Z,99.90
2022-07-29T07:38:12.174Z,99.90
2022-07-29T07:41:00.682Z,99.90
2022-07-29T07:43:49.030Z,99.90
2022-07-29T07:46:38.724Z,99.90
2022-07-29T07:49:27.841Z,99.90
2022-07-29T07:52:16.560Z,99.90
2022-07-29T07:55:05.040Z,99.90
2022-07-29T07:57:53.299Z,99.90
2022-07-29T08:00:41.571Z,99.90
2022-07-29T08:03:31.182Z,99.90
2022-07-29T08:06:19.532Z,99.90
2022-07-29T08:09:27.706Z,99.90
2022-07-29T08:12:16.105Z,99.90
2022-07-29T08:15:04.622Z,99.90
2022-07-29T08:17:57.357Z,99.90
2022-07-29T08:20:51.648Z,99.90
2022-07-29T08:23:46.001Z,99.90
2022-07-29T08:26:36.958Z,99.90
2022-07-29T08:29:25.146Z,99.90
2022-07-29T08:32:13.395Z,99.90
2022-07-29T08:35:05.295Z,99.90
2022-07-29T08:37:55.799Z,99.90
2022-07-29T08:40:44.108Z,99.90
2022-07-29T08:43:33.131Z,99.90
2022-07-29T08:46:22.412Z,99.90
2022-07-29T08:49:10.665Z,99.90
2022-07-29T08:52:00.548Z,99.90
2022-07-29T08:54:50.580Z,99.90
2022-07-29T08:57:48.778Z,99.90
2022-07-29T09:00:45.218Z,99.90
2022-07-29T09:03:36.277Z,99.90
2022-07-29T09:06:27.614Z,99.90
2022-07-29T09:09:16.292Z,99.90
2022-07-29T09:12:07.324Z,99.90
2022-07-29T09:14:55.513Z,99.90
2022-07-29T09:17:45.199Z,99.90
2022-07-29T09:20:47.509Z,99.90
2022-07-29T09:23:35.668Z,99.90
2022-07-29T09:26:30.229Z,99.90
2022-07-29T09:29:21.520Z,99.90
2022-07-29T09:32:11.791Z,99.90
2022-07-29T09:35:23.515Z,99.90
2022-07-29T09:38:15.260Z,99.90
2022-07-29T09:41:06.066Z,99.90
2022-07-29T09:43:59.013Z,99.90
2022-07-29T09:46:59.861Z,99.90
2022-07-29T09:49:58.817Z,99.50
2022-07-29T09:52:48.981Z,99.30
2022-07-29T09:55:49.218Z,98.80
2022-07-29T09:58:37.403Z,99.10
2022-07-29T10:01:30.030Z,99.20
2022-07-29T10:04:20.262Z,97.90
2022-07-29T10:07:08.823Z,98.40
2022-07-29T10:09:59.177Z,98.90
2022-07-29T10:12:55.895Z,97.30
2022-07-29T10:15:46.841Z,97.00
2022-07-29T10:18:36.455Z,95.70
2022-07-29T10:21:36.093Z,95.40
2022-07-29T10:24:26.590Z,95.40
2022-07-29T10:27:14.752Z,95.00
2022-07-29T10:30:05.444Z,94.40
2022-07-29T10:33:23.539Z,93.40
2022-07-29T10:36:34.640Z,92.30
2022-07-29T10:39:44.343Z,92.10
2022-07-29T10:42:34.540Z,92.10
2022-07-29T10:45:24.852Z,90.30
2022-07-29T10:48:13.865Z,89.60
2022-07-29T10:51:05.150Z,90.10
2022-07-29T10:53:57.025Z,87.60
2022-07-29T10:56:46.159Z,87.10
2022-07-29T10:59:36.237Z,88.30
2022-07-29T11:02:49.389Z,83.80
2022-07-29T11:05:55.420Z,81.30
2022-07-29T11:08:43.901Z,81.10
2022-07-29T11:11:47.713Z,79.20
2022-07-29T11:15:00.109Z,78.60
2022-07-29T11:18:07.920Z,78.80
2022-07-29T11:21:03.704Z,76.40
2022-07-29T11:23:51.906Z,80.40
2022-07-29T11:26:41.748Z,77.00
2022-07-29T11:29:30.363Z,75.90
2022-07-29T11:32:23.165Z,74.10
2022-07-29T11:35:38.326Z,73.90
2022-07-29T11:41:40.079Z,71.60
2022-07-29T11:44:57.191Z,72.40
2022-07-29T11:47:52.634Z,69.90
2022-07-29T11:50:44.523Z,70.30
2022-07-29T11:53:33.821Z,68.80
2022-07-29T11:56:25.580Z,69.00
2022-07-29T11:59:15.283Z,69.20
2022-07-29T12:02:36.532Z,69.10
2022-07-29T12:05:14.471Z,68.30
2022-07-29T12:07:01.814Z,72.20
2022-07-29T12:08:12.612Z,67.40
2022-07-29T12:11:03.216Z,66.90
2022-07-29T12:13:52.844Z,66.90
2022-07-29T12:16:41.088Z,66.40
2022-07-29T12:19:31.451Z,63.80
2022-07-29T12:22:26.364Z,65.40
2022-07-29T12:25:33.143Z,64.60
2022-07-29T12:28:27.079Z,65.80
2022-07-29T12:31:43.256Z,61.50
2022-07-29T12:34:28.589Z,63.00
2022-07-29T12:37:18.615Z,62.30
2022-07-29T12:40:08.304Z,62.10
2022-07-29T12:43:18.688Z,62.10
2022-07-29T12:46:15.688Z,62.10
2022-07-29T12:49:04.521Z,60.80
2022-07-29T12:51:52.790Z,61.60
2022-07-29T12:54:50.071Z,60.70
2022-07-29T12:57:47.668Z,59.10
2022-07-29T13:00:36.328Z,60.70
2022-07-29T13:03:24.602Z,61.70
2022-07-29T13:06:32.024Z,59.90
2022-07-29T13:09:23.419Z,61.30
2022-07-29T13:12:15.183Z,61.40
2022-07-29T13:15:14.057Z,61.30
2022-07-29T13:18:04.819Z,60.10
2022-07-29T13:20:53.212Z,60.10
2022-07-29T13:23:41.897Z,60.00
2022-07-29T13:26:30.073Z,59.90
2022-07-29T13:29:19.600Z,58.70
2022-07-29T13:32:10.429Z,57.60
2022-07-29T13:35:01.157Z,56.80
2022-07-29T13:37:53.553Z,58.20
2022-07-29T13:40:42.600Z,58.00
2022-07-29T13:43:30.773Z,58.20
2022-07-29T13:46:20.419Z,57.20
2022-07-29T13:49:08.728Z,57.20
2022-07-29T13:51:57.197Z,56.50
2022-07-29T13:54:46.026Z,57.00
2022-07-29T13:57:34.424Z,56.40
2022-07-29T14:00:24.541Z,57.60
2022-07-29T14:03:14.279Z,57.30
2022-07-29T14:06:02.456Z,54.80
2022-07-29T14:08:50.649Z,58.10
2022-07-29T14:11:39.575Z,56.80
2022-07-29T14:14:27.874Z,57.80
2022-07-29T14:17:16.140Z,57.70
2022-07-29T14:20:06.891Z,56.40
2022-07-29T14:22:55.106Z,56.50
2022-07-29T14:25:43.318Z,57.00
2022-07-29T14:28:32.828Z,56.40
2022-07-29T14:31:21.131Z,56.70
2022-07-29T14:34:09.391Z,57.50
2022-07-29T14:36:58.910Z,57.60
2022-07-29T14:39:47.097Z,57.10
2022-07-29T14:42:35.318Z,58.50
2022-07-29T14:45:23.634Z,57.10
2022-07-29T14:48:12.395Z,58.30
2022-07-29T14:51:04.557Z,58.90
2022-07-29T14:53:54.520Z,57.10
2022-07-29T14:56:46.588Z,58.40
2022-07-29T14:59:35.289Z,57.70
2022-07-29T15:02:31.499Z,57.00
2022-07-29T15:05:28.454Z,56.40
2022-07-29T15:08:16.668Z,57.00
2022-07-29T15:11:06.202Z,57.20
2022-07-29T15:13:54.406Z,57.20
2022-07-29T15:16:48.177Z,56.90
2022-07-29T15:19:36.641Z,57.90
2022-07-29T15:22:24.799Z,56.80
2022-07-29T15:25:13.315Z,56.90
2022-07-29T15:28:03.939Z,57.90
2022-07-29T15:30:52.132Z,57.00
2022-07-29T15:33:40.532Z,55.10
2022-07-29T15:36:50.711Z,55.50
2022-07-29T15:39:36.972Z,54.90
2022-07-29T15:42:25.167Z,55.10
2022-07-29T15:45:14.706Z,54.10
2022-07-29T15:48:03.591Z,52.80
2022-07-29T15:50:52.337Z,51.80
2022-07-29T15:53:40.548Z,51.30
2022-07-29T15:56:28.799Z,50.20
2022-07-29T15:59:22.464Z,51.80
2022-07-29T16:02:12.268Z,49.70
2022-07-29T16:05:00.334Z,49.00
2022-07-29T16:07:48.513Z,50.70
2022-07-29T16:10:36.705Z,52.30
2022-07-29T16:13:24.931Z,51.00
2022-07-29T16:16:13.426Z,51.60
2022-07-29T16:19:02.952Z,51.10
2022-07-29T16:21:51.191Z,51.00
2022-07-29T16:24:40.319Z,50.50
2022-07-29T16:27:35.335Z,49.40
2022-07-29T16:30:26.266Z,50.10
2022-07-29T16:33:14.431Z,48.90
2022-07-29T16:36:04.647Z,48.10
2022-07-29T16:38:52.904Z,48.50
2022-07-29T16:41:41.068Z,47.10
2022-07-29T16:44:29.365Z,47.00
2022-07-29T16:47:17.995Z,46.00
2022-07-29T16:50:08.371Z,47.70
2022-07-29T16:52:57.971Z,48.70
2022-07-29T16:55:46.330Z,48.90
2022-07-29T16:58:34.553Z,48.50
2022-07-29T17:01:22.841Z,48.00
2022-07-29T17:04:12.007Z,47.70
2022-07-29T17:07:01.086Z,47.60
2022-07-29T17:09:55.362Z,49.00
2022-07-29T17:12:44.233Z,48.40
2022-07-29T17:15:32.487Z,47.80
2022-07-29T17:18:24.625Z,48.50
2022-07-29T17:21:13.501Z,49.10
2022-07-29T17:24:01.681Z,50.00
2022-07-29T17:26:51.349Z,49.20
2022-07-29T17:29:39.750Z,48.90
2022-07-29T17:32:27.973Z,48.60
2022-07-29T17:35:45.035Z,49.00
2022-07-29T17:38:33.274Z,49.60
2022-07-29T17:41:21.967Z,50.60
2022-07-29T17:44:11.741Z,51.20
2022-07-29T17:47:00.442Z,52.10
2022-07-29T17:49:48.963Z,53.40
2022-07-29T17:52:37.702Z,53.80
2022-07-29T17:55:25.913Z,54.50
2022-07-29T17:58:14.083Z,55.10
2022-07-29T18:01:03.702Z,55.50
2022-07-29T18:03:51.966Z,55.70
2022-07-29T18:06:41.120Z,56.40
2022-07-29T18:09:29.901Z,56.70
2022-07-29T18:12:18.082Z,56.80
2022-07-29T18:15:07.191Z,57.10
2022-07-29T18:17:57.945Z,57.70
2022-07-29T18:20:46.920Z,57.90
2022-07-29T18:23:35.922Z,58.00
2022-07-29T18:26:24.154Z,58.50
2022-07-29T18:29:19.005Z,58.60
2022-07-29T18:32:08.139Z,58.70
2022-07-29T18:34:57.755Z,58.90
2022-07-29T18:38:01.010Z,59.20
2022-07-29T18:40:51.054Z,59.20
2022-07-29T18:43:39.224Z,59.50
2022-07-29T18:46:27.502Z,59.70
2022-07-29T18:49:15.930Z,60.10
2022-07-29T18:52:06.216Z,60.60
2022-07-29T18:54:54.600Z,60.70
2022-07-29T18:57:54.334Z,61.10
2022-07-29T19:00:44.622Z,61.20
2022-07-29T19:03:32.990Z,61.80
2022-07-29T19:06:25.367Z,61.80
2022-07-29T19:09:16.225Z,62.10
2022-07-29T19:12:04.739Z,62.80
2022-07-29T19:14:52.935Z,63.20
2022-07-29T19:17:41.123Z,63.00
2022-07-29T19:20:29.653Z,62.80
2022-07-29T19:23:18.474Z,62.90
2022-07-29T19:26:08.449Z,63.20
2022-07-29T19:28:56.656Z,63.70
2022-07-29T19:31:45.160Z,63.70
2022-07-29T19:34:33.373Z,63.80
2022-07-29T19:37:21.567Z,64.20
2022-07-29T19:40:12.119Z,64.50
2022-07-29T19:43:01.618Z,64.30
2022-07-29T19:45:49.844Z,65.20
2022-07-29T19:48:38.202Z,64.50
2022-07-29T19:51:26.983Z,64.80
2022-07-29T19:54:15.592Z,65.50
2022-07-29T19:57:03.910Z,65.20
2022-07-29T19:59:53.528Z,65.50
2022-07-29T20:02:42.878Z,65.50
2022-07-29T20:05:31.599Z,65.60
2022-07-29T20:08:19.934Z,66.00
2022-07-29T20:11:08.107Z,66.50
2022-07-29T20:13:56.388Z,66.40
2022-07-29T20:16:46.033Z,66.20
2022-07-29T20:19:34.609Z,66.30
2022-07-29T20:22:22.773Z,66.60
2022-07-29T20:25:11.981Z,66.80
2022-07-29T20:28:00.174Z,67.00
2022-07-29T20:30:48.411Z,67.10
2022-07-29T20:33:38.743Z,67.30
2022-07-29T20:36:27.467Z,67.70
2022-07-29T20:39:16.021Z,68.20
2022-07-29T20:42:04.427Z,68.10
2022-07-29T20:44:53.875Z,68.40
2022-07-29T20:47:42.179Z,69.00
2022-07-29T20:50:31.684Z,68.80
2022-07-29T20:53:20.467Z,68.80
2022-07-29T20:56:08.824Z,68.60
2022-07-29T20:58:57.016Z,68.90
2022-07-29T21:01:45.251Z,69.20
2022-07-29T21:04:33.471Z,69.10
2022-07-29T21:07:22.953Z,68.90
2022-07-29T21:10:11.540Z,69.20
2022-07-29T21:12:59.666Z,69.40
2022-07-29T21:15:49.838Z,69.70
2022-07-29T21:18:38.328Z,69.90
2022-07-29T21:21:26.848Z,70.90
2022-07-29T21:24:16.345Z,70.50
2022-07-29T21:27:22.184Z,70.70
2022-07-29T21:30:11.317Z,71.00
2022-07-29T21:33:00.061Z,70.40
2022-07-29T21:38:57.048Z,70.30
2022-07-29T21:41:46.540Z,70.50
2022-07-29T21:44:37.512Z,70.40
2022-07-29T21:47:25.694Z,71.00
2022-07-29T21:50:13.897Z,70.60
2022-07-29T21:53:02.227Z,71.00
2022-07-29T21:55:54.264Z,71.10
2022-07-29T21:58:45.067Z,71.40
2022-07-29T22:01:39.029Z,71.50
2022-07-29T22:04:27.659Z,71.50
2022-07-29T22:07:15.882Z,71.70
2022-07-29T22:10:04.799Z,71.40
2022-07-29T22:12:53.424Z,71.80
2022-07-29T22:15:46.960Z,71.90
2022-07-29T22:18:35.425Z,72.00
2022-07-29T22:21:23.601Z,72.20
2022-07-29T22:24:12.013Z,72.70
2022-07-29T22:27:00.483Z,71.80
2022-07-29T22:29:48.953Z,72.00
2022-07-29T22:32:38.558Z,72.20
2022-07-29T22:35:26.916Z,72.20
2022-07-29T22:38:15.134Z,71.90
2022-07-29T22:41:03.509Z,72.30
2022-07-29T22:43:51.733Z,72.60
2022-07-29T22:46:40.004Z,72.00
2022-07-29T22:49:29.600Z,72.00
2022-07-29T22:52:17.798Z,72.20
2022-07-29T22:55:06.769Z,72.50
2022-07-29T22:57:55.118Z,72.20
2022-07-29T23:00:43.284Z,72.20
2022-07-29T23:03:31.868Z,72.20
2022-07-29T23:06:21.692Z,72.50
2022-07-29T23:09:09.867Z,72.80
2022-07-29T23:11:58.032Z,73.00
2022-07-29T23:14:46.345Z,73.10
2022-07-29T23:17:36.360Z,72.90
2022-07-29T23:20:25.026Z,73.10
2022-07-29T23:23:14.631Z,72.90
2022-07-29T23:26:02.812Z,73.00
2022-07-29T23:28:50.981Z,73.60
2022-07-29T23:31:41.688Z,73.20
2022-07-29T23:34:30.786Z,74.50
2022-07-29T23:37:18.955Z,74.00
2022-07-29T23:40:14.214Z,73.90
2022-07-29T23:43:02.962Z,74.20
2022-07-29T23:45:58.084Z,74.40
2022-07-29T23:48:46.575Z,74.50
2022-07-29T23:51:34.776Z,74.40
2022-07-29T23:54:22.981Z,74.70
2022-07-29T23:57:12.489Z,74.90
